sensor_id;sensor_type;location;lat;lon;timestamp;P1;durP1;ratioP1;P2;durP2;ratioP2
39242;SDS011;29823;47.404;8.566;2023-07-30T00:01:39;7.15;;;4.05;;
39242;SDS011;29823;47.404;8.566;2023-07-30T00:04:09;8.15;;;4.38;;
39242;SDS011;29823;47.404;8.566;2023-07-30T00:06:36;8.52;;;4.28;;
39242;SDS011;29823;47.404;8.566;2023-07-30T00:09:04;7.68;;;5.10;;
39242;SDS011;29823;47.404;8.566;2023-07-30T00:11:31;8.95;;;4.97;;
39242;SDS011;29823;47.404;8.566;2023-07-30T00:13:59;9.52;;;4.95;;
39242;SDS011;29823;47.404;8.566;2023-07-30T00:16:26;8.77;;;5.18;;
39242;SDS011;29823;47.404;8.566;2023-07-30T00:18:54;6.40;;;4.15;;
39242;SDS011;29823;47.404;8.566;2023-07-30T00:21:24;14.38;;;4.85;;
39242;SDS011;29823;47.404;8.566;2023-07-30T00:23:51;10.48;;;4.78;;
39242;SDS011;29823;47.404;8.566;2023-07-30T00:26:19;4.90;;;4.13;;
39242;SDS011;29823;47.404;8.566;2023-07-30T00:28:47;7.30;;;4.53;;
39242;SDS011;29823;47.404;8.566;2023-07-30T00:31:14;8.18;;;4.60;;
39242;SDS011;29823;47.404;8.566;2023-07-30T00:33:42;5.75;;;4.75;;
39242;SDS011;29823;47.404;8.566;2023-07-30T00:36:10;22.75;;;12.57;;
39242;SDS011;29823;47.404;8.566;2023-07-30T00:38:38;15.30;;;6.43;;
39242;SDS011;29823;47.404;8.566;2023-07-30T00:41:06;8.07;;;5.18;;
39242;SDS011;29823;47.404;8.566;2023-07-30T00:43:34;8.30;;;5.07;;
39242;SDS011;29823;47.404;8.566;2023-07-30T00:46:01;7.13;;;4.55;;
39242;SDS011;29823;47.404;8.566;2023-07-30T00:48:29;9.65;;;4.45;;
39242;SDS011;29823;47.404;8.566;2023-07-30T00:50:57;6.93;;;4.70;;
39242;SDS011;29823;47.404;8.566;2023-07-30T00:53:25;8.82;;;4.82;;
39242;SDS011;29823;47.404;8.566;2023-07-30T00:55:55;8.07;;;4.50;;
39242;SDS011;29823;47.404;8.566;2023-07-30T00:58:23;9.82;;;4.75;;
39242;SDS011;29823;47.404;8.566;2023-07-30T01:00:51;9.13;;;4.78;;
39242;SDS011;29823;47.404;8.566;2023-07-30T01:03:19;10.23;;;4.70;;
39242;SDS011;29823;47.404;8.566;2023-07-30T01:05:47;7.03;;;4.20;;
39242;SDS011;29823;47.404;8.566;2023-07-30T01:08:14;6.43;;;4.68;;
39242;SDS011;29823;47.404;8.566;2023-07-30T01:10:42;8.60;;;5.13;;
39242;SDS011;29823;47.404;8.566;2023-07-30T01:13:11;8.05;;;5.07;;
39242;SDS011;29823;47.404;8.566;2023-07-30T01:15:40;12.48;;;5.07;;
39242;SDS011;29823;47.404;8.566;2023-07-30T01:18:08;7.90;;;4.68;;
39242;SDS011;29823;47.404;8.566;2023-07-30T01:20:35;10.80;;;4.95;;
39242;SDS011;29823;47.404;8.566;2023-07-30T01:23:04;11.77;;;5.60;;
39242;SDS011;29823;47.404;8.566;2023-07-30T01:25:33;7.28;;;5.22;;
39242;SDS011;29823;47.404;8.566;2023-07-30T01:28:03;13.18;;;4.70;;
39242;SDS011;29823;47.404;8.566;2023-07-30T01:30:33;7.40;;;5.20;;
39242;SDS011;29823;47.404;8.566;2023-07-30T01:33:06;8.73;;;4.90;;
39242;SDS011;29823;47.404;8.566;2023-07-30T01:35:34;13.55;;;5.68;;
39242;SDS011;29823;47.404;8.566;2023-07-30T01:38:02;7.38;;;5.95;;
39242;SDS011;29823;47.404;8.566;2023-07-30T01:40:33;37.58;;;22.73;;
39242;SDS011;29823;47.404;8.566;2023-07-30T01:43:00;12.38;;;7.32;;
39242;SDS011;29823;47.404;8.566;2023-07-30T01:45:28;10.27;;;6.00;;
39242;SDS011;29823;47.404;8.566;2023-07-30T01:47:56;10.18;;;6.15;;
39242;SDS011;29823;47.404;8.566;2023-07-30T01:50:23;9.25;;;6.45;;
39242;SDS011;29823;47.404;8.566;2023-07-30T01:52:51;8.13;;;6.25;;
39242;SDS011;29823;47.404;8.566;2023-07-30T01:55:18;7.22;;;5.40;;
39242;SDS011;29823;47.404;8.566;2023-07-30T01:57:47;8.73;;;5.72;;
39242;SDS011;29823;47.404;8.566;2023-07-30T02:00:15;10.43;;;6.28;;
39242;SDS011;29823;47.404;8.566;2023-07-30T02:02:42;8.98;;;5.68;;
39242;SDS011;29823;47.404;8.566;2023-07-30T02:05:10;8.27;;;5.80;;
39242;SDS011;29823;47.404;8.566;2023-07-30T02:07:38;8.25;;;5.68;;
39242;SDS011;29823;47.404;8.566;2023-07-30T02:10:06;20.13;;;5.80;;
39242;SDS011;29823;47.404;8.566;2023-07-30T02:12:33;7.43;;;5.50;;
39242;SDS011;29823;47.404;8.566;2023-07-30T02:15:03;9.85;;;5.88;;
39242;SDS011;29823;47.404;8.566;2023-07-30T02:17:31;13.38;;;5.97;;
39242;SDS011;29823;47.404;8.566;2023-07-30T02:19:58;9.75;;;5.90;;
39242;SDS011;29823;47.404;8.566;2023-07-30T02:22:26;8.45;;;6.28;;
39242;SDS011;29823;47.404;8.566;2023-07-30T02:24:53;10.85;;;6.25;;
39242;SDS011;29823;47.404;8.566;2023-07-30T02:27:23;7.13;;;6.03;;
39242;SDS011;29823;47.404;8.566;2023-07-30T02:29:51;11.52;;;5.75;;
39242;SDS011;29823;47.404;8.566;2023-07-30T02:32:19;13.90;;;6.22;;
39242;SDS011;29823;47.404;8.566;2023-07-30T02:34:47;8.00;;;6.60;;
39242;SDS011;29823;47.404;8.566;2023-07-30T02:37:15;13.45;;;6.90;;
39242;SDS011;29823;47.404;8.566;2023-07-30T02:39:42;10.15;;;6.22;;
39242;SDS011;29823;47.404;8.566;2023-07-30T02:42:10;11.48;;;6.80;;
39242;SDS011;29823;47.404;8.566;2023-07-30T02:44:37;14.05;;;6.55;;
39242;SDS011;29823;47.404;8.566;2023-07-30T02:47:05;7.57;;;6.00;;
39242;SDS011;29823;47.404;8.566;2023-07-30T02:49:34;13.95;;;6.63;;
39242;SDS011;29823;47.404;8.566;2023-07-30T02:52:02;11.32;;;6.78;;
39242;SDS011;29823;47.404;8.566;2023-07-30T02:54:29;10.30;;;6.80;;
39242;SDS011;29823;47.404;8.566;2023-07-30T02:56:57;14.45;;;6.45;;
39242;SDS011;29823;47.404;8.566;2023-07-30T02:59:25;11.43;;;6.45;;
39242;SDS011;29823;47.404;8.566;2023-07-30T03:01:52;10.00;;;7.00;;
39242;SDS011;29823;47.404;8.566;2023-07-30T03:04:20;9.10;;;6.88;;
39242;SDS011;29823;47.404;8.566;2023-07-30T03:06:49;15.32;;;8.93;;
39242;SDS011;29823;47.404;8.566;2023-07-30T03:09:17;13.20;;;7.60;;
39242;SDS011;29823;47.404;8.566;2023-07-30T03:11:44;9.27;;;7.97;;
39242;SDS011;29823;47.404;8.566;2023-07-30T03:14:12;9.80;;;7.53;;
39242;SDS011;29823;47.404;8.566;2023-07-30T03:16:39;9.55;;;7.72;;
39242;SDS011;29823;47.404;8.566;2023-07-30T03:19:07;11.82;;;7.40;;
39242;SDS011;29823;47.404;8.566;2023-07-30T03:21:35;14.88;;;7.65;;
39242;SDS011;29823;47.404;8.566;2023-07-30T03:24:04;16.02;;;8.00;;
39242;SDS011;29823;47.404;8.566;2023-07-30T03:26:32;10.73;;;7.60;;
39242;SDS011;29823;47.404;8.566;2023-07-30T03:29:00;12.45;;;7.32;;
39242;SDS011;29823;47.404;8.566;2023-07-30T03:31:27;10.73;;;7.18;;
39242;SDS011;29823;47.404;8.566;2023-07-30T03:33:55;12.45;;;7.45;;
39242;SDS011;29823;47.404;8.566;2023-07-30T03:36:23;9.50;;;7.28;;
39242;SDS011;29823;47.404;8.566;2023-07-30T03:38:50;10.43;;;7.28;;
39242;SDS011;29823;47.404;8.566;2023-07-30T03:41:19;13.88;;;8.07;;
39242;SDS011;29823;47.404;8.566;2023-07-30T03:43:47;15.80;;;8.43;;
39242;SDS011;29823;47.404;8.566;2023-07-30T03:46:15;10.75;;;6.50;;
39242;SDS011;29823;47.404;8.566;2023-07-30T03:48:42;11.30;;;6.97;;
39242;SDS011;29823;47.404;8.566;2023-07-30T03:51:10;11.82;;;7.90;;
39242;SDS011;29823;47.404;8.566;2023-07-30T03:53:37;9.27;;;7.10;;
39242;SDS011;29823;47.404;8.566;2023-07-30T03:56:05;11.70;;;7.28;;
39242;SDS011;29823;47.404;8.566;2023-07-30T03:58:34;13.30;;;7.10;;
39242;SDS011;29823;47.404;8.566;2023-07-30T04:01:02;11.10;;;7.13;;
39242;SDS011;29823;47.404;8.566;2023-07-30T04:03:29;12.80;;;7.28;;
39242;SDS011;29823;47.404;8.566;2023-07-30T04:05:57;9.32;;;7.18;;
39242;SDS011;29823;47.404;8.566;2023-07-30T04:08:25;10.23;;;7.63;;
39242;SDS011;29823;47.404;8.566;2023-07-30T04:10:52;8.60;;;6.53;;
39242;SDS011;29823;47.404;8.566;2023-07-30T04:13:20;14.05;;;7.20;;
39242;SDS011;29823;47.404;8.566;2023-07-30T04:15:49;8.25;;;6.90;;
39242;SDS011;29823;47.404;8.566;2023-07-30T04:18:17;13.55;;;7.25;;
39242;SDS011;29823;47.404;8.566;2023-07-30T04:20:46;11.15;;;8.02;;
39242;SDS011;29823;47.404;8.566;2023-07-30T04:23:13;14.27;;;7.70;;
39242;SDS011;29823;47.404;8.566;2023-07-30T04:25:41;13.15;;;7.85;;
39242;SDS011;29823;47.404;8.566;2023-07-30T04:28:08;13.23;;;8.13;;
39242;SDS011;29823;47.404;8.566;2023-07-30T04:30:36;10.13;;;8.15;;
39242;SDS011;29823;47.404;8.566;2023-07-30T04:33:05;9.07;;;7.50;;
39242;SDS011;29823;47.404;8.566;2023-07-30T04:35:33;10.32;;;7.43;;
39242;SDS011;29823;47.404;8.566;2023-07-30T04:38:00;12.23;;;6.93;;
39242;SDS011;29823;47.404;8.566;2023-07-30T04:40:28;14.05;;;6.47;;
39242;SDS011;29823;47.404;8.566;2023-07-30T04:42:56;12.82;;;6.47;;
39242;SDS011;29823;47.404;8.566;2023-07-30T04:45:23;9.95;;;6.35;;
39242;SDS011;29823;47.404;8.566;2023-07-30T04:47:51;9.27;;;5.95;;
39242;SDS011;29823;47.404;8.566;2023-07-30T04:50:20;12.93;;;5.40;;
39242;SDS011;29823;47.404;8.566;2023-07-30T04:52:48;9.18;;;5.25;;
39242;SDS011;29823;47.404;8.566;2023-07-30T04:55:15;7.22;;;5.60;;
39242;SDS011;29823;47.404;8.566;2023-07-30T04:57:43;7.57;;;5.40;;
39242;SDS011;29823;47.404;8.566;2023-07-30T05:00:11;8.00;;;5.70;;
39242;SDS011;29823;47.404;8.566;2023-07-30T05:02:39;6.38;;;5.22;;
39242;SDS011;29823;47.404;8.566;2023-07-30T05:05:07;12.13;;;5.75;;
39242;SDS011;29823;47.404;8.566;2023-07-30T05:07:36;8.32;;;5.03;;
39242;SDS011;29823;47.404;8.566;2023-07-30T05:10:04;5.47;;;4.57;;
39242;SDS011;29823;47.404;8.566;2023-07-30T05:12:34;12.77;;;9.07;;
39242;SDS011;29823;47.404;8.566;2023-07-30T05:15:01;11.82;;;7.65;;
39242;SDS011;29823;47.404;8.566;2023-07-30T05:17:29;5.22;;;4.13;;
39242;SDS011;29823;47.404;8.566;2023-07-30T05:19:57;6.28;;;4.53;;
39242;SDS011;29823;47.404;8.566;2023-07-30T05:22:25;6.60;;;4.60;;
39242;SDS011;29823;47.404;8.566;2023-07-30T05:24:54;5.80;;;4.53;;
39242;SDS011;29823;47.404;8.566;2023-07-30T05:27:21;6.13;;;4.05;;
39242;SDS011;29823;47.404;8.566;2023-07-30T05:29:49;6.13;;;4.40;;
39242;SDS011;29823;47.404;8.566;2023-07-30T05:32:16;14.80;;;4.45;;
39242;SDS011;29823;47.404;8.566;2023-07-30T05:34:44;8.48;;;4.20;;
39242;SDS011;29823;47.404;8.566;2023-07-30T05:37:11;9.95;;;4.28;;
39242;SDS011;29823;47.404;8.566;2023-07-30T05:39:39;6.22;;;4.15;;
39242;SDS011;29823;47.404;8.566;2023-07-30T05:42:08;5.63;;;3.78;;
39242;SDS011;29823;47.404;8.566;2023-07-30T05:44:35;8.07;;;3.78;;
39242;SDS011;29823;47.404;8.566;2023-07-30T05:47:03;8.98;;;3.97;;
39242;SDS011;29823;47.404;8.566;2023-07-30T05:49:30;8.80;;;3.58;;
39242;SDS011;29823;47.404;8.566;2023-07-30T05:51:58;6.45;;;3.78;;
39242;SDS011;29823;47.404;8.566;2023-07-30T05:54:26;5.47;;;3.45;;
39242;SDS011;29823;47.404;8.566;2023-07-30T05:56:53;7.97;;;3.78;;
39242;SDS011;29823;47.404;8.566;2023-07-30T05:59:22;4.80;;;3.60;;
39242;SDS011;29823;47.404;8.566;2023-07-30T06:01:50;7.97;;;3.72;;
39242;SDS011;29823;47.404;8.566;2023-07-30T06:04:18;4.72;;;3.47;;
39242;SDS011;29823;47.404;8.566;2023-07-30T06:06:46;5.07;;;3.95;;
39242;SDS011;29823;47.404;8.566;2023-07-30T06:09:13;6.55;;;3.72;;
39242;SDS011;29823;47.404;8.566;2023-07-30T06:11:41;4.78;;;2.80;;
39242;SDS011;29823;47.404;8.566;2023-07-30T06:14:08;4.50;;;3.05;;
39242;SDS011;29823;47.404;8.566;2023-07-30T06:16:37;4.70;;;3.00;;
39242;SDS011;29823;47.404;8.566;2023-07-30T06:19:05;3.58;;;2.65;;
39242;SDS011;29823;47.404;8.566;2023-07-30T06:21:33;19.98;;;14.10;;
39242;SDS011;29823;47.404;8.566;2023-07-30T06:24:01;19.40;;;12.43;;
39242;SDS011;29823;47.404;8.566;2023-07-30T06:26:28;7.80;;;4.20;;
39242;SDS011;29823;47.404;8.566;2023-07-30T06:28:56;4.15;;;2.47;;
39242;SDS011;29823;47.404;8.566;2023-07-30T06:31:24;3.72;;;2.85;;
39242;SDS011;29823;47.404;8.566;2023-07-30T06:33:53;3.47;;;2.60;;
39242;SDS011;29823;47.404;8.566;2023-07-30T06:36:20;4.25;;;2.85;;
39242;SDS011;29823;47.404;8.566;2023-07-30T06:38:48;3.45;;;2.50;;
39242;SDS011;29823;47.404;8.566;2023-07-30T06:41:15;3.03;;;2.45;;
39242;SDS011;29823;47.404;8.566;2023-07-30T06:43:43;5.40;;;2.63;;
39242;SDS011;29823;47.404;8.566;2023-07-30T06:46:11;2.65;;;2.28;;
39242;SDS011;29823;47.404;8.566;2023-07-30T06:48:38;5.35;;;2.10;;
39242;SDS011;29823;47.404;8.566;2023-07-30T06:51:09;3.08;;;2.30;;
39242;SDS011;29823;47.404;8.566;2023-07-30T06:53:37;3.17;;;2.07;;
39242;SDS011;29823;47.404;8.566;2023-07-30T06:56:04;3.40;;;2.30;;
39242;SDS011;29823;47.404;8.566;2023-07-30T06:58:32;4.93;;;2.20;;
39242;SDS011;29823;47.404;8.566;2023-07-30T07:00:59;5.40;;;2.50;;
39242;SDS011;29823;47.404;8.566;2023-07-30T07:03:27;5.28;;;2.15;;
39242;SDS011;29823;47.404;8.566;2023-07-30T07:05:55;3.63;;;2.30;;
39242;SDS011;29823;47.404;8.566;2023-07-30T07:08:24;2.85;;;2.00;;
39242;SDS011;29823;47.404;8.566;2023-07-30T07:10:53;2.13;;;1.60;;
39242;SDS011;29823;47.404;8.566;2023-07-30T07:13:21;3.08;;;1.90;;
39242;SDS011;29823;47.404;8.566;2023-07-30T07:15:48;3.30;;;1.98;;
39242;SDS011;29823;47.404;8.566;2023-07-30T07:18:16;3.17;;;1.83;;
39242;SDS011;29823;47.404;8.566;2023-07-30T07:20:43;2.63;;;1.60;;
39242;SDS011;29823;47.404;8.566;2023-07-30T07:23:11;1.95;;;1.73;;
39242;SDS011;29823;47.404;8.566;2023-07-30T07:25:40;2.70;;;1.88;;
39242;SDS011;29823;47.404;8.566;2023-07-30T07:28:08;2.08;;;1.77;;
39242;SDS011;29823;47.404;8.566;2023-07-30T07:30:36;3.40;;;2.00;;
39242;SDS011;29823;47.404;8.566;2023-07-30T07:33:04;3.92;;;2.67;;
39242;SDS011;29823;47.404;8.566;2023-07-30T07:35:32;5.15;;;1.80;;
39242;SDS011;29823;47.404;8.566;2023-07-30T07:38:00;1.73;;;1.45;;
39242;SDS011;29823;47.404;8.566;2023-07-30T07:40:27;2.13;;;1.70;;
39242;SDS011;29823;47.404;8.566;2023-07-30T07:42:56;2.17;;;1.70;;
39242;SDS011;29823;47.404;8.566;2023-07-30T07:45:24;3.78;;;1.55;;
39242;SDS011;29823;47.404;8.566;2023-07-30T07:47:52;2.65;;;1.52;;
39242;SDS011;29823;47.404;8.566;2023-07-30T07:50:19;5.57;;;2.05;;
39242;SDS011;29823;47.404;8.566;2023-07-30T07:52:47;2.03;;;1.60;;
39242;SDS011;29823;47.404;8.566;2023-07-30T07:55:14;2.33;;;1.60;;
39242;SDS011;29823;47.404;8.566;2023-07-30T07:57:42;3.67;;;1.90;;
39242;SDS011;29823;47.404;8.566;2023-07-30T08:00:11;2.97;;;1.60;;
39242;SDS011;29823;47.404;8.566;2023-07-30T08:02:39;2.47;;;1.60;;
39242;SDS011;29823;47.404;8.566;2023-07-30T08:05:07;2.10;;;1.60;;
39242;SDS011;29823;47.404;8.566;2023-07-30T08:07:35;3.55;;;1.60;;
39242;SDS011;29823;47.404;8.566;2023-07-30T08:10:02;2.55;;;1.42;;
39242;SDS011;29823;47.404;8.566;2023-07-30T08:12:31;2.47;;;1.30;;
39242;SDS011;29823;47.404;8.566;2023-07-30T08:14:58;3.85;;;1.85;;
39242;SDS011;29823;47.404;8.566;2023-07-30T08:17:27;2.58;;;1.30;;
39242;SDS011;29823;47.404;8.566;2023-07-30T08:19:55;3.58;;;1.83;;
39242;SDS011;29823;47.404;8.566;2023-07-30T08:22:23;1.50;;;1.38;;
39242;SDS011;29823;47.404;8.566;2023-07-30T08:24:50;1.70;;;1.60;;
39242;SDS011;29823;47.404;8.566;2023-07-30T08:27:18;3.58;;;1.95;;
39242;SDS011;29823;47.404;8.566;2023-07-30T08:29:45;3.85;;;1.50;;
39242;SDS011;29823;47.404;8.566;2023-07-30T08:32:13;4.38;;;1.60;;
39242;SDS011;29823;47.404;8.566;2023-07-30T08:34:42;2.17;;;1.90;;
39242;SDS011;29823;47.404;8.566;2023-07-30T08:37:09;3.30;;;2.03;;
39242;SDS011;29823;47.404;8.566;2023-07-30T08:39:37;3.70;;;1.75;;
39242;SDS011;29823;47.404;8.566;2023-07-30T08:42:05;3.78;;;1.90;;
39242;SDS011;29823;47.404;8.566;2023-07-30T08:44:32;3.22;;;1.65;;
39242;SDS011;29823;47.404;8.566;2023-07-30T08:47:00;4.40;;;1.60;;
39242;SDS011;29823;47.404;8.566;2023-07-30T08:49:28;3.05;;;1.50;;
39242;SDS011;29823;47.404;8.566;2023-07-30T08:52:00;2.55;;;1.58;;
39242;SDS011;29823;47.404;8.566;2023-07-30T08:54:30;3.05;;;1.75;;
39242;SDS011;29823;47.404;8.566;2023-07-30T08:56:58;3.72;;;1.80;;
39242;SDS011;29823;47.404;8.566;2023-07-30T08:59:25;3.40;;;2.00;;
39242;SDS011;29823;47.404;8.566;2023-07-30T09:01:54;1.88;;;1.30;;
39242;SDS011;29823;47.404;8.566;2023-07-30T09:04:23;1.73;;;1.60;;
39242;SDS011;29823;47.404;8.566;2023-07-30T09:06:51;2.38;;;1.67;;
39242;SDS011;29823;47.404;8.566;2023-07-30T09:09:20;5.90;;;1.83;;
39242;SDS011;29823;47.404;8.566;2023-07-30T09:11:50;1.80;;;1.40;;
39242;SDS011;29823;47.404;8.566;2023-07-30T09:14:19;3.45;;;1.52;;
39242;SDS011;29823;47.404;8.566;2023-07-30T09:16:46;2.40;;;1.80;;
39242;SDS011;29823;47.404;8.566;2023-07-30T09:19:16;1.73;;;1.52;;
39242;SDS011;29823;47.404;8.566;2023-07-30T09:21:43;3.58;;;1.60;;
39242;SDS011;29823;47.404;8.566;2023-07-30T09:24:11;1.85;;;1.60;;
39242;SDS011;29823;47.404;8.566;2023-07-30T09:26:43;4.97;;;1.85;;
39242;SDS011;29823;47.404;8.566;2023-07-30T09:29:10;1.70;;;1.27;;
39242;SDS011;29823;47.404;8.566;2023-07-30T09:31:47;3.72;;;1.70;;
39242;SDS011;29823;47.404;8.566;2023-07-30T09:34:15;5.95;;;1.90;;
39242;SDS011;29823;47.404;8.566;2023-07-30T09:36:44;2.60;;;1.60;;
39242;SDS011;29823;47.404;8.566;2023-07-30T09:39:15;2.78;;;2.20;;
39242;SDS011;29823;47.404;8.566;2023-07-30T09:41:45;3.08;;;2.00;;
39242;SDS011;29823;47.404;8.566;2023-07-30T09:44:15;6.03;;;2.00;;
39242;SDS011;29823;47.404;8.566;2023-07-30T09:46:43;2.65;;;1.92;;
39242;SDS011;29823;47.404;8.566;2023-07-30T09:49:11;3.05;;;1.75;;
39242;SDS011;29823;47.404;8.566;2023-07-30T09:51:39;3.40;;;1.90;;
39242;SDS011;29823;47.404;8.566;2023-07-30T09:54:07;3.85;;;1.83;;
39242;SDS011;29823;47.404;8.566;2023-07-30T09:56:34;2.90;;;1.52;;
39242;SDS011;29823;47.404;8.566;2023-07-30T09:59:03;1.80;;;1.48;;
39242;SDS011;29823;47.404;8.566;2023-07-30T10:01:31;2.38;;;1.55;;
39242;SDS011;29823;47.404;8.566;2023-07-30T10:04:00;2.92;;;1.63;;
39242;SDS011;29823;47.404;8.566;2023-07-30T10:06:30;3.15;;;1.65;;
39242;SDS011;29823;47.404;8.566;2023-07-30T10:08:59;2.92;;;1.70;;
39242;SDS011;29823;47.404;8.566;2023-07-30T10:11:27;4.80;;;1.58;;
39242;SDS011;29823;47.404;8.566;2023-07-30T10:13:55;2.33;;;1.52;;
39242;SDS011;29823;47.404;8.566;2023-07-30T10:16:26;2.95;;;1.88;;
39242;SDS011;29823;47.404;8.566;2023-07-30T10:18:55;3.35;;;1.65;;
39242;SDS011;29823;47.404;8.566;2023-07-30T10:21:23;4.38;;;1.67;;
39242;SDS011;29823;47.404;8.566;2023-07-30T10:23:57;4.65;;;1.63;;
39242;SDS011;29823;47.404;8.566;2023-07-30T10:26:29;4.72;;;1.40;;
39242;SDS011;29823;47.404;8.566;2023-07-30T10:31:40;2.42;;;1.60;;
39242;SDS011;29823;47.404;8.566;2023-07-30T10:34:08;2.15;;;1.60;;
39242;SDS011;29823;47.404;8.566;2023-07-30T10:36:41;5.55;;;1.92;;
39242;SDS011;29823;47.404;8.566;2023-07-30T10:39:10;1.48;;;1.20;;
39242;SDS011;29823;47.404;8.566;2023-07-30T10:41:38;6.32;;;1.60;;
39242;SDS011;29823;47.404;8.566;2023-07-30T10:44:16;6.82;;;3.47;;
39242;SDS011;29823;47.404;8.566;2023-07-30T10:46:46;2.70;;;1.80;;
39242;SDS011;29823;47.404;8.566;2023-07-30T10:49:14;4.00;;;1.80;;
39242;SDS011;29823;47.404;8.566;2023-07-30T10:51:41;2.13;;;1.67;;
39242;SDS011;29823;47.404;8.566;2023-07-30T10:54:09;3.47;;;1.83;;
39242;SDS011;29823;47.404;8.566;2023-07-30T10:56:37;2.55;;;1.70;;
39242;SDS011;29823;47.404;8.566;2023-07-30T10:59:05;2.05;;;1.50;;
39242;SDS011;29823;47.404;8.566;2023-07-30T11:01:35;1.90;;;1.70;;
39242;SDS011;29823;47.404;8.566;2023-07-30T11:04:07;6.63;;;1.67;;
39242;SDS011;29823;47.404;8.566;2023-07-30T11:06:35;2.33;;;1.60;;
39242;SDS011;29823;47.404;8.566;2023-07-30T11:09:02;5.47;;;1.73;;
39242;SDS011;29823;47.404;8.566;2023-07-30T11:11:30;5.78;;;1.40;;
39242;SDS011;29823;47.404;8.566;2023-07-30T11:13:58;4.07;;;1.70;;
39242;SDS011;29823;47.404;8.566;2023-07-30T11:16:25;3.65;;;1.50;;
39242;SDS011;29823;47.404;8.566;2023-07-30T11:18:53;2.47;;;1.50;;
39242;SDS011;29823;47.404;8.566;2023-07-30T11:21:23;3.15;;;1.60;;
39242;SDS011;29823;47.404;8.566;2023-07-30T11:23:51;4.25;;;1.80;;
39242;SDS011;29823;47.404;8.566;2023-07-30T11:26:19;4.25;;;1.55;;
39242;SDS011;29823;47.404;8.566;2023-07-30T11:28:47;3.13;;;1.48;;
39242;SDS011;29823;47.404;8.566;2023-07-30T11:31:15;4.93;;;1.67;;
39242;SDS011;29823;47.404;8.566;2023-07-30T11:33:43;2.55;;;1.60;;
39242;SDS011;29823;47.404;8.566;2023-07-30T11:36:12;2.58;;;1.77;;
39242;SDS011;29823;47.404;8.566;2023-07-30T11:38:42;2.92;;;1.40;;
39242;SDS011;29823;47.404;8.566;2023-07-30T11:41:10;3.13;;;1.92;;
39242;SDS011;29823;47.404;8.566;2023-07-30T11:43:38;4.55;;;1.60;;
39242;SDS011;29823;47.404;8.566;2023-07-30T11:46:13;2.88;;;1.60;;
39242;SDS011;29823;47.404;8.566;2023-07-30T11:48:42;1.77;;;1.50;;
39242;SDS011;29823;47.404;8.566;2023-07-30T11:51:22;2.83;;;1.50;;
39242;SDS011;29823;47.404;8.566;2023-07-30T11:53:52;2.05;;;1.50;;
39242;SDS011;29823;47.404;8.566;2023-07-30T11:56:21;3.30;;;1.50;;
39242;SDS011;29823;47.404;8.566;2023-07-30T11:58:50;1.88;;;1.65;;
39242;SDS011;29823;47.404;8.566;2023-07-30T12:01:18;1.70;;;1.50;;
39242;SDS011;29823;47.404;8.566;2023-07-30T12:03:45;2.58;;;2.10;;
39242;SDS011;29823;47.404;8.566;2023-07-30T12:06:13;2.00;;;1.50;;
39242;SDS011;29823;47.404;8.566;2023-07-30T12:08:41;2.25;;;1.50;;
39242;SDS011;29823;47.404;8.566;2023-07-30T12:11:10;4.80;;;1.85;;
39242;SDS011;29823;47.404;8.566;2023-07-30T12:13:44;7.32;;;1.85;;
39242;SDS011;29823;47.404;8.566;2023-07-30T12:16:12;2.03;;;1.48;;
39242;SDS011;29823;47.404;8.566;2023-07-30T12:18:40;1.90;;;1.27;;
39242;SDS011;29823;47.404;8.566;2023-07-30T12:21:08;5.70;;;1.80;;
39242;SDS011;29823;47.404;8.566;2023-07-30T12:23:37;3.33;;;1.67;;
39242;SDS011;29823;47.404;8.566;2023-07-30T12:26:05;4.70;;;1.98;;
39242;SDS011;29823;47.404;8.566;2023-07-30T12:28:34;1.50;;;1.40;;
39242;SDS011;29823;47.404;8.566;2023-07-30T12:31:02;1.88;;;1.52;;
39242;SDS011;29823;47.404;8.566;2023-07-30T12:33:29;1.83;;;1.50;;
39242;SDS011;29823;47.404;8.566;2023-07-30T12:35:57;2.53;;;1.52;;
39242;SDS011;29823;47.404;8.566;2023-07-30T12:38:25;2.35;;;1.67;;
39242;SDS011;29823;47.404;8.566;2023-07-30T12:40:52;2.80;;;1.88;;
39242;SDS011;29823;47.404;8.566;2023-07-30T12:43:20;5.80;;;1.85;;
39242;SDS011;29823;47.404;8.566;2023-07-30T12:45:49;3.38;;;1.70;;
39242;SDS011;29823;47.404;8.566;2023-07-30T12:48:17;2.50;;;1.55;;
39242;SDS011;29823;47.404;8.566;2023-07-30T12:50:45;5.68;;;1.80;;
39242;SDS011;29823;47.404;8.566;2023-07-30T12:53:12;2.00;;;1.60;;
39242;SDS011;29823;47.404;8.566;2023-07-30T12:55:40;2.00;;;1.65;;
39242;SDS011;29823;47.404;8.566;2023-07-30T12:58:08;4.13;;;1.70;;
39242;SDS011;29823;47.404;8.566;2023-07-30T13:00:38;2.15;;;1.77;;
39242;SDS011;29823;47.404;8.566;2023-07-30T13:03:07;2.22;;;1.55;;
39242;SDS011;29823;47.404;8.566;2023-07-30T13:05:34;3.50;;;1.70;;
39242;SDS011;29823;47.404;8.566;2023-07-30T13:08:02;3.67;;;1.80;;
39242;SDS011;29823;47.404;8.566;2023-07-30T13:10:30;2.22;;;1.70;;
39242;SDS011;29823;47.404;8.566;2023-07-30T13:12:57;2.00;;;1.73;;
39242;SDS011;29823;47.404;8.566;2023-07-30T13:15:25;3.30;;;1.60;;
39242;SDS011;29823;47.404;8.566;2023-07-30T13:17:54;1.67;;;1.58;;
39242;SDS011;29823;47.404;8.566;2023-07-30T13:20:23;2.22;;;1.65;;
39242;SDS011;29823;47.404;8.566;2023-07-30T13:22:51;2.72;;;1.70;;
39242;SDS011;29823;47.404;8.566;2023-07-30T13:25:20;2.00;;;1.52;;
39242;SDS011;29823;47.404;8.566;2023-07-30T13:27:47;4.22;;;1.60;;
39242;SDS011;29823;47.404;8.566;2023-07-30T13:30:15;3.40;;;1.70;;
39242;SDS011;29823;47.404;8.566;2023-07-30T13:32:43;3.30;;;1.95;;
39242;SDS011;29823;47.404;8.566;2023-07-30T13:35:10;2.92;;;1.90;;
39242;SDS011;29823;47.404;8.566;2023-07-30T13:37:39;2.15;;;1.80;;
39242;SDS011;29823;47.404;8.566;2023-07-30T13:40:07;2.15;;;1.92;;
39242;SDS011;29823;47.404;8.566;2023-07-30T13:42:35;2.80;;;1.60;;
39242;SDS011;29823;47.404;8.566;2023-07-30T13:45:03;3.22;;;1.80;;
39242;SDS011;29823;47.404;8.566;2023-07-30T13:47:31;1.95;;;1.52;;
39242;SDS011;29823;47.404;8.566;2023-07-30T13:49:58;4.03;;;1.63;;
39242;SDS011;29823;47.404;8.566;2023-07-30T13:52:26;2.05;;;1.73;;
39242;SDS011;29823;47.404;8.566;2023-07-30T13:54:55;2.55;;;1.80;;
39242;SDS011;29823;47.404;8.566;2023-07-30T13:57:23;1.80;;;1.52;;
39242;SDS011;29823;47.404;8.566;2023-07-30T13:59:51;4.50;;;1.73;;
39242;SDS011;29823;47.404;8.566;2023-07-30T14:02:18;1.73;;;1.58;;
39242;SDS011;29823;47.404;8.566;2023-07-30T14:04:46;2.67;;;1.73;;
39242;SDS011;29823;47.404;8.566;2023-07-30T14:07:14;2.08;;;1.55;;
39242;SDS011;29823;47.404;8.566;2023-07-30T14:09:41;2.65;;;1.52;;
39242;SDS011;29823;47.404;8.566;2023-07-30T14:12:10;3.47;;;1.50;;
39242;SDS011;29823;47.404;8.566;2023-07-30T14:14:38;2.95;;;1.50;;
39242;SDS011;29823;47.404;8.566;2023-07-30T14:17:06;2.38;;;1.55;;
39242;SDS011;29823;47.404;8.566;2023-07-30T14:19:33;4.32;;;1.70;;
39242;SDS011;29823;47.404;8.566;2023-07-30T14:22:01;2.17;;;1.40;;
39242;SDS011;29823;47.404;8.566;2023-07-30T14:24:29;2.05;;;1.50;;
39242;SDS011;29823;47.404;8.566;2023-07-30T14:26:56;4.30;;;1.63;;
39242;SDS011;29823;47.404;8.566;2023-07-30T14:29:25;2.28;;;1.63;;
39242;SDS011;29823;47.404;8.566;2023-07-30T14:31:53;3.70;;;1.80;;
39242;SDS011;29823;47.404;8.566;2023-07-30T14:34:20;1.88;;;1.60;;
39242;SDS011;29823;47.404;8.566;2023-07-30T14:36:48;3.08;;;1.60;;
39242;SDS011;29823;47.404;8.566;2023-07-30T14:39:16;1.90;;;1.50;;
39242;SDS011;29823;47.404;8.566;2023-07-30T14:41:43;2.35;;;1.60;;
39242;SDS011;29823;47.404;8.566;2023-07-30T14:44:11;2.88;;;1.80;;
39242;SDS011;29823;47.404;8.566;2023-07-30T14:46:40;2.53;;;1.85;;
39242;SDS011;29823;47.404;8.566;2023-07-30T14:49:07;1.38;;;1.27;;
39242;SDS011;29823;47.404;8.566;2023-07-30T14:51:35;3.40;;;1.80;;
39242;SDS011;29823;47.404;8.566;2023-07-30T14:54:03;1.65;;;1.17;;